Latest Weather Observations for Horn Island

IDQ60801

Issued at 10:02 am EST Saturday 25 April 2015 (issued every 30 minutes, with the page automatically refreshed every 10 minutes)

About weather observations | Map of weather stations | Latest weather observations for QLD | Other Formats
Station Details ID: 027058 Name: HORN ISLAND Lat: -10.58 Lon: 142.29 Height: 4.0 m
Data from the previous 72 hours. | See also: Recent months at Horn Island
Date/Time
EST
Temp
°C
App
Temp
°C
Dew
Point
Rel
Hum
%
Delta-T
°C
Wind Press
QNH
hPa
Press
MSL
hPa
Rain
since 9 am
mm
Dir
 
Spd
km/h
Gust
km/h
Spd
kts
Gust
kts
25/10:00am 28.6 30.0 23.5 74 3.5 ESE 22 32 12 17 1011.7 - 0.0
25/09:30am 28.2 31.1 23.8 77 3.0 E 15 20 8 11 1011.6 - 0.0
25/09:00am 27.9 30.7 24.3 81 2.5 E 17 24 9 13 1011.5 1011.5 0.0
25/08:30am 27.0 29.8 23.7 82 2.3 E 15 19 8 10 1011.4 - 0.0
25/08:00am 27.0 30.4 24.1 84 2.0 ESE 13 15 7 8 1011.0 - 0.0
25/07:30am 26.9 30.7 24.0 84 2.0 ESE 11 15 6 8 1010.7 - 0.0
25/07:00am 26.6 30.3 23.9 85 1.9 SE 11 15 6 8 1010.3 - 0.0
25/06:30am 26.6 29.8 23.7 84 2.0 ESE 13 19 7 10 1010.0 - 0.0
25/06:00am 26.4 30.2 24.1 87 1.6 ESE 11 15 6 8 1009.8 1009.8 0.0
25/05:30am 26.4 29.7 23.9 86 1.7 SSE 13 17 7 9 1009.5 - 0.0
25/05:00am 26.6 30.8 24.1 86 1.7 SE 9 11 5 6 1009.3 - 0.0
25/04:30am 26.5 30.6 24.0 86 1.7 ESE 9 15 5 8 1009.4 - 0.0
25/04:00am 26.5 30.6 24.0 86 1.7 SE 9 13 5 7 1009.3 - 0.0
25/03:30am 26.6 31.2 24.1 86 1.7 SE 7 9 4 5 1009.5 - 0.0
25/03:00am 26.4 31.0 24.1 87 1.6 SSE 7 9 4 5 1009.5 1009.5 0.0
25/02:30am 26.2 30.8 24.1 88 1.4 SSE 7 11 4 6 1009.3 - 0.0
25/02:00am 26.1 29.7 23.8 87 1.6 SSE 11 13 6 7 1009.2 - 0.0
25/01:30am 26.2 30.4 24.1 88 1.4 SSE 9 11 5 6 1009.5 - 0.0
25/01:00am 26.0 30.5 24.0 89 1.4 SSE 7 9 4 5 1009.9 - 0.0
25/12:30am 25.9 31.8 24.1 90 1.2 CALM 0 0 0 0 1010.2 - 0.0
25/12:00am 25.9 31.3 23.9 89 1.4 S 2 6 1 3 1010.3 1010.3 0.0
 
Date/Time
EST
Temp
°C
App
Temp
°C
Dew
Point
Rel
Hum
%
Delta-T
°C
Wind Press
QNH
hPa
Press
MSL
hPa
Rain
since 9 am
mm
Dir
 
Spd
km/h
Gust
km/h
Spd
kts
Gust
kts
24/11:30pm 26.2 31.3 24.1 88 1.4 SSE 4 7 2 4 1010.3 - 0.0
24/11:00pm 26.3 30.8 24.0 87 1.6 S 7 11 4 6 1010.4 - 0.0
24/10:30pm 26.4 31.2 24.1 87 1.6 SE 6 7 3 4 1010.4 - 0.0
24/10:00pm 26.4 30.9 23.9 86 1.7 SSE 7 9 4 5 1010.4 - 0.0
24/09:30pm 26.6 31.1 23.9 85 1.9 SSE 7 11 4 6 1010.3 - 0.0
24/09:00pm 26.7 30.6 24.2 86 1.7 S 11 17 6 9 1009.9 1009.9 0.0
24/08:30pm 26.8 31.1 24.3 86 1.7 S 9 13 5 7 1009.6 - 0.0
24/08:00pm 27.2 30.9 23.9 82 2.3 S 11 17 6 9 1009.3 - 0.0
24/07:30pm 27.5 31.2 23.3 78 2.9 SSE 9 13 5 7 1008.9 - 0.0
24/07:00pm 27.7 31.4 23.3 77 3.0 SE 9 13 5 7 1008.7 - 0.0
24/06:30pm 27.8 30.6 23.0 75 3.3 ESE 13 17 7 9 1008.5 - 0.0
24/06:00pm 28.2 30.7 23.1 74 3.5 ESE 15 19 8 10 1008.3 1008.3 0.0
24/05:30pm 28.8 31.3 23.2 71 3.8 E 15 20 8 11 1008.4 - 0.0
24/05:00pm 29.3 31.0 23.0 69 4.3 E 19 22 10 12 1008.3 - 0.0
24/04:30pm 29.2 32.1 23.2 70 4.1 ENE 13 19 7 10 1008.2 - 0.0
24/04:00pm 29.5 31.7 23.2 69 4.3 E 17 24 9 13 1008.1 - 0.0
24/03:30pm 29.5 31.2 23.0 68 4.4 E 19 26 10 14 1008.2 - 0.0
24/03:00pm 29.8 31.9 23.7 70 4.2 ENE 19 26 10 14 1008.3 1008.3 0.0
24/02:30pm 29.5 31.3 23.2 69 4.3 E 19 28 10 15 1008.5 - 0.0
24/02:00pm 30.0 32.0 23.9 70 4.2 E 20 30 11 16 1008.8 - 0.0
24/01:30pm 29.7 31.0 23.4 69 4.3 E 22 28 12 15 1009.0 - 0.0
24/01:00pm 29.1 30.8 23.1 70 4.1 E 19 28 10 15 1009.5 - 0.0
24/12:30pm 28.8 30.3 23.0 71 4.0 ENE 20 28 11 15 1010.2 - 0.0
24/12:00pm 29.5 31.2 23.4 69 4.2 E 20 24 11 13 1010.5 1010.5 0.0
24/11:30am 29.7 31.3 22.9 67 4.6 E 19 26 10 14 1010.8 - 0.0
24/11:00am 29.6 31.3 23.1 68 4.5 E 19 30 10 16 1010.9 - 0.0
24/10:30am 29.0 31.8 23.7 73 3.7 E 15 20 8 11 1011.2 - 0.0
24/10:00am 28.5 30.9 23.0 72 3.8 ESE 15 20 8 11 1011.3 - 0.0
24/09:30am 28.1 31.0 23.2 74 3.3 SE 13 20 7 11 1011.3 - 0.0
24/09:00am 28.0 30.7 23.4 76 3.2 SE 15 17 8 9 1011.1 1011.1 0.0
24/08:30am 27.9 31.8 24.3 81 2.5 SE 11 15 6 8 1010.9 - 0.0
24/08:00am 27.3 31.9 24.2 83 2.1 SE 7 9 4 5 1010.5 - 0.0
24/07:30am 26.7 32.7 24.2 86 1.7 CALM 0 0 0 0 1010.2 - 0.0
24/07:00am 25.9 30.2 23.6 87 1.6 S 7 9 4 5 1009.9 - 0.0
24/06:30am 25.8 30.0 23.5 87 1.6 S 7 9 4 5 1009.6 - 0.0
24/06:00am 26.4 30.6 23.5 84 2.0 S 7 7 4 4 1009.4 1009.4 0.0
24/05:30am 26.7 30.9 23.4 82 2.3 SE 7 9 4 5 1009.2 - 0.0
24/05:00am 26.8 30.3 23.5 82 2.3 SE 11 15 6 8 1009.0 - 0.0
24/04:30am 26.9 30.0 23.6 82 2.3 ESE 13 17 7 9 1008.7 - 0.0
24/04:00am 26.6 29.6 23.3 82 2.3 ESE 13 17 7 9 1008.9 - 0.0
24/03:30am 26.5 29.4 23.2 82 2.2 ESE 13 20 7 11 1008.8 - 0.0
24/03:00am 26.5 29.4 23.2 82 2.2 ESE 13 17 7 9 1008.8 1008.8 0.0
24/02:30am 26.6 29.7 22.9 80 2.5 SE 11 15 6 8 1009.0 - 0.0
24/02:00am 27.0 29.0 22.2 75 3.2 ESE 15 20 8 11 1009.1 - 0.0
24/01:30am 27.1 29.0 22.7 77 3.0 ESE 17 20 9 11 1009.7 - 0.0
24/01:00am 27.1 29.3 23.3 80 2.6 E 17 20 9 11 1009.7 - 0.0
24/12:30am 27.1 29.3 23.3 80 2.6 E 17 24 9 13 1009.9 - 0.0
24/12:00am 27.2 29.5 23.4 80 2.6 E 17 22 9 12 1010.2 1010.2 0.0
 
Date/Time
EST
Temp
°C
App
Temp
°C
Dew
Point
Rel
Hum
%
Delta-T
°C
Wind Press
QNH
hPa
Press
MSL
hPa
Rain
since 9 am
mm
Dir
 
Spd
km/h
Gust
km/h
Spd
kts
Gust
kts
23/11:30pm 27.3 29.5 23.3 79 2.7 ESE 17 20 9 11 1010.2 - 0.0
23/11:00pm 27.2 29.0 23.2 79 2.7 E 19 28 10 15 1010.1 - 0.0
23/10:30pm 27.4 29.6 23.2 78 2.9 ESE 17 24 9 13 1010.3 - 0.0
23/10:00pm 27.4 29.6 23.2 78 2.9 E 17 26 9 14 1010.4 - 0.0
23/09:30pm 27.6 29.9 22.8 75 3.3 E 15 20 8 11 1010.4 - 0.0
23/09:00pm 27.7 29.2 23.1 76 3.1 E 20 28 11 15 1010.3 1010.3 0.0
23/08:30pm 27.6 29.8 23.2 77 3.0 ESE 17 24 9 13 1010.0 - 0.0
23/08:00pm 27.5 29.3 23.3 78 2.9 ESE 19 24 10 13 1009.4 - 0.0
23/07:30pm 27.3 29.1 23.3 79 2.7 ESE 19 24 10 13 1009.0 - 0.0
23/07:00pm 27.5 29.7 23.3 78 2.9 ESE 17 24 9 13 1008.6 - 0.0
23/06:30pm 27.6 29.5 23.4 78 2.9 ESE 19 24 10 13 1007.9 - 0.0
23/06:00pm 28.0 29.5 23.1 74 3.3 ESE 20 26 11 14 1007.8 1007.8 0.0
23/05:30pm 28.4 30.2 23.3 74 3.5 ESE 19 26 10 14 1007.6 - 0.0
23/05:00pm 29.0 30.7 23.4 72 3.8 ESE 20 28 11 15 1007.4 - 0.0
23/04:30pm 29.0 30.1 23.0 70 4.1 ESE 22 28 12 15 1007.2 - 0.0
23/04:00pm 29.0 29.8 23.2 71 4.0 E 24 30 13 16 1007.0 - 0.0
23/03:30pm 29.4 30.5 23.1 69 4.3 E 22 30 12 16 1007.1 - 0.0
23/03:00pm 30.1 31.5 23.5 67 4.6 ESE 22 32 12 17 1007.3 1007.3 0.0
23/02:30pm 29.7 30.1 23.2 68 4.5 E 26 32 14 17 1007.7 - 0.0
23/02:00pm 29.6 30.5 23.3 69 4.3 E 24 30 13 16 1008.2 - 0.0
23/01:30pm 30.2 31.5 24.1 70 4.2 E 24 33 13 18 1008.8 - 0.0
23/01:00pm 29.8 31.2 23.5 69 4.3 E 22 32 12 17 1009.5 - 0.0
23/12:30pm 29.9 31.1 23.8 70 4.2 E 24 32 13 17 1010.0 - 0.0
23/12:00pm 29.6 31.1 23.1 68 4.5 E 20 28 11 15 1010.6 1010.6 0.0
23/11:30am 30.2 32.2 23.9 69 4.4 E 20 33 11 18 1011.1 - 0.0
23/11:00am 30.2 31.0 22.4 63 5.3 ESE 22 32 12 17 1011.4 - 0.0
23/10:30am 30.1 31.0 23.3 67 4.7 ESE 24 32 13 17 1011.9 - 0.0
23/10:00am 29.9 31.5 23.8 70 4.2 ESE 22 28 12 15 1011.9 - 0.0
23/09:30am 28.8 30.6 23.5 73 3.6 ESE 20 28 11 15 1011.8 - 0.0
23/09:00am 28.5 31.1 23.9 76 3.2 SE 17 20 9 11 1011.7 1011.7 0.0
23/08:30am 28.0 31.0 24.0 79 2.8 SE 15 20 8 11 1011.4 - 0.0
23/08:00am 27.6 31.7 24.6 84 2.1 SE 11 15 6 8 1011.2 - 0.0
23/07:30am 26.7 30.8 24.5 88 1.5 S 11 15 6 8 1010.7 - 0.0
23/07:00am 25.7 30.2 23.9 90 1.2 S 7 11 4 6 1010.3 - 0.0
23/06:30am 25.6 29.6 23.8 90 1.2 SSE 9 11 5 6 1009.5 - 0.0
23/06:00am 25.7 29.8 23.9 90 1.2 SSE 9 11 5 6 1009.4 1009.4 0.0
23/05:30am 25.7 29.7 23.7 89 1.4 SSE 9 11 5 6 1009.3 - 0.0
23/05:00am 25.7 29.6 23.6 88 1.4 S 9 15 5 8 1009.2 - 0.0
23/04:30am 26.1 29.7 23.8 87 1.6 SSE 11 15 6 8 1009.0 - 0.0
23/04:00am 26.2 29.5 23.9 87 1.6 SSE 13 17 7 9 1009.1 - 0.0
23/03:30am 26.2 29.4 23.7 86 1.7 SSE 13 17 7 9 1009.1 - 0.0
23/03:00am 26.3 29.6 23.8 86 1.7 SSE 13 20 7 11 1009.1 1009.1 0.0
23/02:30am 26.3 29.2 23.8 86 1.7 SSE 15 19 8 10 1009.4 - 0.0
23/02:00am 26.3 29.6 23.8 86 1.7 SSE 13 17 7 9 1009.7 - 0.0
23/01:30am 26.4 28.8 23.7 85 1.9 SSE 17 22 9 12 1009.9 - 0.0
23/01:00am 26.5 29.4 23.8 85 1.9 SSE 15 20 8 11 1010.2 - 0.0
23/12:30am 26.6 29.4 23.7 84 2.0 SSE 15 20 8 11 1010.5 - 0.0
23/12:00am 26.8 30.2 24.1 85 1.9 SSE 13 17 7 9 1010.7 1010.7 0.0
 
Date/Time
EST
Temp
°C
App
Temp
°C
Dew
Point
Rel
Hum
%
Delta-T
°C
Wind Press
QNH
hPa
Press
MSL
hPa
Rain
since 9 am
mm
Dir
 
Spd
km/h
Gust
km/h
Spd
kts
Gust
kts
22/11:30pm 26.8 30.2 24.1 85 1.9 SSE 13 20 7 11 1010.6 - 0.0
22/11:00pm 27.0 30.4 24.1 84 2.0 SSE 13 22 7 12 1010.7 - 0.0
22/10:30pm 27.1 30.0 24.4 85 1.9 SE 17 22 9 12 1010.7 - 0.0
22/10:00pm 27.2 29.0 24.3 84 2.0 SE 22 30 12 16 1010.7 - 0.0
22/09:30pm 27.2 29.3 24.1 83 2.1 SE 20 28 11 15 1010.8 - 0.0
22/09:00pm 27.2 29.4 24.3 84 2.0 SE 20 26 11 14 1010.7 1010.7 0.0
22/08:30pm 27.1 29.7 24.0 83 2.1 SE 17 24 9 13 1010.6 - 0.0
22/08:00pm 27.1 29.7 24.0 83 2.1 SE 17 26 9 14 1009.9 - 0.0
22/07:30pm 27.3 29.3 24.0 82 2.3 SE 20 28 11 15 1009.5 - 0.0
22/07:00pm 27.2 28.4 23.9 82 2.3 SE 24 33 13 18 1009.3 - 0.0
22/06:30pm 27.4 29.0 23.2 78 2.9 SE 20 28 11 15 1008.9 - 0.0
22/06:00pm 27.4 28.0 23.4 79 2.7 SE 26 37 14 20 1008.5 1008.5 0.0
22/05:30pm 29.0 30.1 23.7 73 3.7 ESE 24 35 13 19 1008.2 - 0.0
22/05:00pm 29.4 30.3 24.0 72 3.7 ESE 26 39 14 21 1007.8 - 0.0
22/04:30pm 29.2 30.3 23.6 72 3.9 ESE 24 33 13 18 1007.6 - 0.0
22/04:00pm 29.8 30.5 23.7 70 4.2 ESE 26 35 14 19 1007.6 - 0.0
22/03:30pm 29.6 30.6 24.2 73 3.8 E 26 33 14 18 1007.4 - 0.0
22/03:00pm 30.5 31.8 24.6 70 4.1 ESE 26 35 14 19 1007.5 1007.5 0.0
22/02:30pm 29.7 29.6 23.6 69 4.2 ESE 30 39 16 21 1007.8 - 0.0
22/02:00pm 29.5 28.9 23.7 71 4.0 ESE 33 44 18 24 1008.2 - 0.0
22/01:30pm 28.5 28.4 23.6 75 3.4 ESE 30 43 16 23 1008.6 - 0.0
22/01:00pm 29.9 30.7 23.8 70 4.2 ESE 26 35 14 19 1008.8 - 0.0
22/12:30pm 30.0 31.1 24.4 72 3.9 ESE 26 37 14 20 1009.2 - 0.0
22/12:00pm 29.7 30.7 24.1 72 3.9 ESE 26 35 14 19 1009.6 1009.6 0.0
22/11:30am 30.1 30.6 24.0 70 4.2 ESE 28 37 15 20 1010.1 - 0.0
22/11:00am 30.1 30.1 23.8 69 4.4 ESE 30 37 16 20 1010.5 - 0.0
22/10:30am 29.9 30.7 23.8 70 4.2 ESE 26 35 14 19 1010.9 - 0.0

Other Formats:

Comma delimited format used in spreadsheet applications
http://www.bom.gov.au/fwo/IDQ60801/IDQ60801.94174.axf

JavaScript Object Notation format (JSON) in row-major order
http://www.bom.gov.au/fwo/IDQ60801/IDQ60801.94174.json